No particular awareness of the weather is required.    There are no Weather-warnings


Meteo18 Weather Cam more information Meteo18 Weather Cam


Thunder radar more information blitzortung!


Rain radar more information rain snow radar


Visit our other weather sites:

Template documentation
and downloads

And another site



Weather Underground History page Text

Daily Summary for April 7, 2016 Units:  Metric    English   Both
« Previous Day
Next Day »
Daily Weekly Monthly Yearly Custom
  High: Low: Average:
Temperature: 12.9 °C 1.7 °C 8 °C
Dew Point: 8.4 °C 0.7 °C 4.7 °C
Humidity: 94 % 53 % 81 %
Wind Speed: 17.7 km/h 0.0 km/h 1.6 km/h
Wind Gust: 20.9 km/h - -
Wind:- - SSW
Pressure: 1015.5 hPa 1013.1 hPa -
Precipitation: 2.0 mm    
Historical Graphs
 
 
Tabular Data for April 7, 2016
Time Temperature Dew Point Pressure Wind Wind Speed Wind Gust Humidity Rainfall Rate (Hourly)
00:02 10.4 °C 8.0 °C 1014.1 hPa SW 1.6 km/h 16.1 km/h 85 % 0.0 mm
00:07 10.3 °C 8.1 °C 1013.8 hPa SW 3.2 km/h 16.1 km/h 86 % 0.0 mm
00:12 10.2 °C 8.0 °C 1013.8 hPa WSW 4.8 km/h 12.9 km/h 86 % 0.0 mm
00:17 10.2 °C 8.0 °C 1013.8 hPa SSW 4.8 km/h 17.7 km/h 86 % 0.0 mm
00:22 10.2 °C 8.0 °C 1013.8 hPa SSW 4.8 km/h 17.7 km/h 86 % 0.0 mm
00:32 10.2 °C 8.0 °C 1013.8 hPa SW 4.8 km/h 17.7 km/h 86 % 0.0 mm
00:37 10.2 °C 8.1 °C 1013.8 hPa SSW 6.4 km/h 17.7 km/h 87 % 0.0 mm
00:42 10.1 °C 8.0 °C 1014.1 hPa SW 9.7 km/h 17.7 km/h 87 % 0.0 mm
00:47 10.1 °C 8.2 °C 1013.8 hPa SW 6.4 km/h 17.7 km/h 88 % 0.0 mm
00:52 10.1 °C 8.4 °C 1014.1 hPa SSW 8.0 km/h 17.7 km/h 89 % 0.0 mm
00:57 9.9 °C 8.0 °C 1014.4 hPa ESE 1.6 km/h 17.7 km/h 88 % 0.0 mm
01:02 9.6 °C 7.7 °C 1014.4 hPa SSE 1.6 km/h 14.5 km/h 88 % 0.0 mm
01:07 9.2 °C 7.3 °C 1014.4 hPa South 1.6 km/h 11.3 km/h 88 % 0.3 mm
01:17 8.8 °C 6.9 °C 1014.4 hPa Calm   6.4 km/h 88 % 0.3 mm
01:22 8.7 °C 7.0 °C 1014.4 hPa Calm   6.4 km/h 89 % 0.3 mm
01:27 8.6 °C 7.1 °C 1014.4 hPa Calm   4.8 km/h 90 % 0.3 mm
01:32 8.4 °C 6.9 °C 1014.1 hPa Calm   4.8 km/h 90 % 0.3 mm
01:37 8.4 °C 7.0 °C 1014.1 hPa Calm   3.2 km/h 91 % 0.3 mm
01:42 8.3 °C 6.9 °C 1014.1 hPa Calm   3.2 km/h 91 % 0.3 mm
01:47 8.3 °C 6.9 °C 1014.1 hPa Calm   1.6 km/h 91 % 0.3 mm
01:52 8.3 °C 7.1 °C 1014.1 hPa Calm   1.6 km/h 92 % 0.3 mm
01:57 8.2 °C 7.0 °C 1014.1 hPa Calm   1.6 km/h 92 % 0.5 mm
02:02 8.2 °C 7.0 °C 1014.1 hPa Calm   1.6 km/h 92 % 0.5 mm
02:07 8.2 °C 7.0 °C 1014.1 hPa Calm   1.6 km/h 92 % 0.3 mm
02:12 8.2 °C 7.0 °C 1014.4 hPa Calm   1.6 km/h 92 % 0.3 mm
02:17 8.2 °C 7.0 °C 1014.1 hPa Calm     92 % 0.3 mm
02:22 8.1 °C 6.9 °C 1014.1 hPa Calm     92 % 0.3 mm
02:27 8.1 °C 7.0 °C 1014.1 hPa Calm     93 % 0.3 mm
02:32 8.1 °C 7.0 °C 1014.1 hPa Calm     93 % 0.3 mm
02:42 8.1 °C 7.0 °C 1013.8 hPa Calm     93 % 0.3 mm
02:47 8.0 °C 7.1 °C 1014.1 hPa Calm     94 % 0.3 mm
02:52 8.0 °C 7.1 °C 1013.8 hPa Calm     94 % 0.3 mm
02:57 8.0 °C 7.1 °C 1013.8 hPa Calm   1.6 km/h 94 % 0.0 mm
03:02 8.0 °C 7.1 °C 1013.8 hPa Calm   1.6 km/h 94 % 0.0 mm
03:07 8.0 °C 7.1 °C 1013.8 hPa Calm   1.6 km/h 94 % 0.0 mm
03:12 8.0 °C 7.1 °C 1013.8 hPa Calm   1.6 km/h 94 % 0.0 mm
03:17 8.0 °C 7.1 °C 1013.8 hPa Calm     94 % 0.0 mm
03:22 8.1 °C 7.2 °C 1013.8 hPa Calm   1.6 km/h 94 % 0.0 mm
03:27 8.1 °C 7.2 °C 1013.8 hPa Calm   1.6 km/h 94 % 0.0 mm
03:32 8.1 °C 7.2 °C 1013.8 hPa SE 1.6 km/h 1.6 km/h 94 % 0.0 mm
03:37 7.9 °C 6.8 °C 1013.8 hPa NNE 3.2 km/h 6.4 km/h 93 % 0.0 mm
03:42 7.7 °C 6.3 °C 1014.1 hPa NE 8.0 km/h 12.9 km/h 91 % 0.3 mm
03:47 7.2 °C 5.8 °C 1014.1 hPa ENE 1.6 km/h 20.9 km/h 91 % 0.5 mm
03:52 7.1 °C 5.9 °C 1014.1 hPa ENE 1.6 km/h 20.9 km/h 92 % 0.8 mm
03:57 6.9 °C 5.7 °C 1014.1 hPa ENE 3.2 km/h 20.9 km/h 92 % 0.8 mm
04:02 6.8 °C 5.6 °C 1014.1 hPa ENE 1.6 km/h 6.4 km/h 92 % 0.8 mm
04:07 6.7 °C 5.5 °C 1014.1 hPa Calm   6.4 km/h 92 % 0.8 mm
04:12 6.7 °C 5.6 °C 1014.1 hPa Calm   6.4 km/h 93 % 1.0 mm
04:17 6.6 °C 5.5 °C 1013.8 hPa Calm   4.8 km/h 93 % 1.0 mm
04:22 6.6 °C 5.5 °C 1013.8 hPa Calm   1.6 km/h 93 % 1.0 mm
04:27 6.4 °C 5.4 °C 1013.8 hPa Calm     93 % 1.0 mm
04:37 6.2 °C 5.2 °C 1014.1 hPa Calm     93 % 1.0 mm
04:42 6.2 °C 5.2 °C 1014.1 hPa Calm     93 % 0.8 mm
04:47 6.2 °C 5.3 °C 1013.8 hPa Calm     94 % 0.3 mm
04:57 6.3 °C 5.3 °C 1014.1 hPa Calm   4.8 km/h 93 % 0.3 mm
05:02 6.3 °C 5.3 °C 1013.8 hPa Calm   4.8 km/h 93 % 0.3 mm
05:07 6.3 °C 5.3 °C 1013.8 hPa Calm   4.8 km/h 93 % 0.3 mm
05:12 6.3 °C 5.3 °C 1013.8 hPa Calm   3.2 km/h 93 % 0.0 mm
05:17 6.3 °C 5.3 °C 1014.1 hPa Calm     93 % 0.0 mm
05:22 6.4 °C 5.4 °C 1014.1 hPa Calm     93 % 0.0 mm
05:27 6.3 °C 5.3 °C 1014.1 hPa Calm     93 % 0.0 mm
05:37 6.3 °C 5.3 °C 1014.1 hPa Calm     93 % 0.0 mm
05:42 6.3 °C 5.4 °C 1014.1 hPa Calm     94 % 0.0 mm
05:47 6.3 °C 5.4 °C 1013.8 hPa Calm   1.6 km/h 94 % 0.0 mm
05:52 6.3 °C 5.3 °C 1013.8 hPa Calm   3.2 km/h 93 % 0.0 mm
05:57 6.4 °C 5.4 °C 1013.8 hPa Calm   3.2 km/h 93 % 0.0 mm
06:02 6.4 °C 5.4 °C 1014.1 hPa Calm   3.2 km/h 93 % 0.0 mm
06:07 6.4 °C 5.4 °C 1014.1 hPa Calm   3.2 km/h 93 % 0.0 mm
06:12 6.5 °C 5.4 °C 1014.1 hPa SW 1.6 km/h 3.2 km/h 93 % 0.0 mm
06:17 6.5 °C 5.4 °C 1014.1 hPa SSW 3.2 km/h 3.2 km/h 93 % 0.0 mm
06:22 6.5 °C 5.4 °C 1014.1 hPa SSW 3.2 km/h 3.2 km/h 93 % 0.0 mm
06:27 6.6 °C 5.4 °C 1014.1 hPa SSW 3.2 km/h 6.4 km/h 92 % 0.0 mm
06:32 6.6 °C 5.4 °C 1014.1 hPa SSW 1.6 km/h 6.4 km/h 92 % 0.0 mm
06:37 6.5 °C 5.3 °C 1014.1 hPa Calm   4.8 km/h 92 % 0.0 mm
06:42 6.5 °C 5.3 °C 1014.1 hPa Calm   4.8 km/h 92 % 0.0 mm
06:47 6.4 °C 5.2 °C 1014.1 hPa WSW 1.6 km/h 3.2 km/h 92 % 0.0 mm
06:52 6.4 °C 5.0 °C 1014.1 hPa SW 1.6 km/h 3.2 km/h 91 % 0.0 mm
06:57 6.4 °C 4.9 °C 1014.1 hPa Calm   6.4 km/h 90 % 0.0 mm
07:02 6.4 °C 4.9 °C 1014.4 hPa Calm   6.4 km/h 90 % 0.0 mm
07:07 6.4 °C 4.9 °C 1014.4 hPa Calm   6.4 km/h 90 % 0.0 mm
07:12 6.4 °C 4.9 °C 1014.4 hPa SW 1.6 km/h 4.8 km/h 90 % 0.0 mm
07:17 6.3 °C 4.8 °C 1014.4 hPa Calm   3.2 km/h 90 % 0.0 mm
07:22 6.3 °C 4.8 °C 1014.4 hPa SE 1.6 km/h 1.6 km/h 90 % 0.0 mm
07:27 6.3 °C 4.8 °C 1014.4 hPa SW 1.6 km/h 3.2 km/h 90 % 0.0 mm
07:32 6.3 °C 4.8 °C 1014.4 hPa SW 1.6 km/h 3.2 km/h 90 % 0.0 mm
07:37 6.3 °C 4.8 °C 1014.4 hPa SW 1.6 km/h 3.2 km/h 90 % 0.0 mm
07:42 6.3 °C 4.8 °C 1014.4 hPa Calm   3.2 km/h 90 % 0.0 mm
07:47 6.3 °C 4.8 °C 1014.4 hPa Calm   3.2 km/h 90 % 0.0 mm
07:52 6.3 °C 4.8 °C 1014.4 hPa Calm   3.2 km/h 90 % 0.0 mm
07:57 6.2 °C 4.7 °C 1014.4 hPa Calm   1.6 km/h 90 % 0.0 mm
08:02 6.1 °C 4.7 °C 1014.4 hPa Calm   1.6 km/h 91 % 0.0 mm
08:07 6.1 °C 4.7 °C 1014.4 hPa Calm   1.6 km/h 91 % 0.0 mm
08:12 6.2 °C 4.8 °C 1014.8 hPa Calm   1.6 km/h 91 % 0.0 mm
08:17 6.2 °C 4.8 °C 1014.8 hPa Calm   1.6 km/h 91 % 0.0 mm
08:22 6.4 °C 5.0 °C 1014.8 hPa Calm   1.6 km/h 91 % 0.0 mm
08:27 6.4 °C 4.9 °C 1014.8 hPa Calm   1.6 km/h 90 % 0.0 mm
08:32 6.5 °C 4.8 °C 1014.8 hPa SW 1.6 km/h 3.2 km/h 89 % 0.0 mm
08:37 6.6 °C 4.9 °C 1014.8 hPa Calm   6.4 km/h 89 % 0.0 mm
08:42 6.7 °C 4.9 °C 1014.8 hPa Calm   6.4 km/h 88 % 0.0 mm
08:57 7.2 °C 5.3 °C 1015.1 hPa Calm   3.2 km/h 88 % 0.0 mm
09:02 7.3 °C 5.4 °C 1015.1 hPa Calm   3.2 km/h 88 % 0.0 mm
09:07 7.4 °C 5.4 °C 1015.1 hPa Calm   4.8 km/h 87 % 0.0 mm
09:12 7.5 °C 5.5 °C 1015.1 hPa SW 1.6 km/h 6.4 km/h 87 % 0.0 mm
09:22 7.6 °C 5.2 °C 1015.1 hPa SSW 1.6 km/h 3.2 km/h 85 % 0.0 mm
09:27 7.6 °C 5.4 °C 1015.1 hPa SSE 1.6 km/h 6.4 km/h 86 % 0.0 mm
09:32 7.5 °C 5.0 °C 1015.1 hPa Calm   8.0 km/h 84 % 0.0 mm
09:37 7.6 °C 5.1 °C 1015.1 hPa Calm   8.0 km/h 84 % 0.0 mm
09:42 7.7 °C 5.3 °C 1015.5 hPa Calm   8.0 km/h 85 % 0.0 mm
09:52 8.2 °C 5.1 °C 1015.5 hPa Calm   8.0 km/h 81 % 0.0 mm
09:57 8.2 °C 5.0 °C 1015.5 hPa Calm   8.0 km/h 80 % 0.0 mm
10:02 7.9 °C 4.7 °C 1015.5 hPa Calm   8.0 km/h 80 % 0.0 mm
10:17 8.5 °C 5.4 °C 1015.5 hPa Calm   9.7 km/h 81 % 0.0 mm
10:22 9.2 °C 5.4 °C 1015.5 hPa Calm   9.7 km/h 77 % 0.0 mm
10:32 8.7 °C 4.9 °C 1015.5 hPa SW 3.2 km/h 16.1 km/h 77 % 0.0 mm
10:37 9.0 °C 4.8 °C 1015.5 hPa WSW 1.6 km/h 16.1 km/h 75 % 0.0 mm
10:42 8.9 °C 4.9 °C 1015.5 hPa West 3.2 km/h 16.1 km/h 76 % 0.0 mm
10:47 8.7 °C 4.9 °C 1015.5 hPa WSW 4.8 km/h 11.3 km/h 77 % 0.0 mm
10:57 8.7 °C 4.7 °C 1015.5 hPa SW 4.8 km/h 8.0 km/h 76 % 0.0 mm
11:02 9.3 °C 5.3 °C 1015.5 hPa SE 4.8 km/h 8.0 km/h 76 % 0.0 mm
11:07 9.7 °C 5.1 °C 1015.5 hPa SW 3.2 km/h 8.0 km/h 73 % 0.0 mm
11:12 9.8 °C 5.6 °C 1015.5 hPa SW 1.6 km/h 8.0 km/h 75 % 0.0 mm
11:17 9.7 °C 4.7 °C 1015.5 hPa SW 4.8 km/h 8.0 km/h 71 % 0.0 mm
11:22 9.8 °C 4.8 °C 1015.5 hPa WSW 3.2 km/h 9.7 km/h 71 % 0.0 mm
11:27 10.0 °C 4.8 °C 1015.5 hPa SW 1.6 km/h 9.7 km/h 70 % 0.0 mm
11:32 9.9 °C 4.1 °C 1015.5 hPa SSE 4.8 km/h 11.3 km/h 67 % 0.0 mm
11:37 9.7 °C 3.9 °C 1015.1 hPa SW 1.6 km/h 11.3 km/h 67 % 0.0 mm
11:42 9.4 °C 3.6 °C 1015.5 hPa SW 4.8 km/h 9.7 km/h 67 % 0.0 mm
11:52 9.7 °C 4.1 °C 1015.1 hPa WSW 4.8 km/h 9.7 km/h 68 % 0.0 mm
11:57 9.7 °C 3.7 °C 1015.1 hPa WSW 3.2 km/h 9.7 km/h 66 % 0.0 mm
12:02 9.6 °C 3.8 °C 1015.5 hPa SW 3.2 km/h 11.3 km/h 67 % 0.0 mm
12:07 9.6 °C 4.6 °C 1015.5 hPa SE 6.4 km/h 11.3 km/h 71 % 0.0 mm
12:12 9.3 °C 4.7 °C 1015.5 hPa SE 6.4 km/h 11.3 km/h 73 % 0.0 mm
12:17 9.4 °C 4.2 °C 1015.5 hPa WSW 3.2 km/h 12.9 km/h 70 % 0.0 mm
12:22 10.3 °C 4.4 °C 1015.1 hPa SW 6.4 km/h 12.9 km/h 67 % 0.0 mm
12:27 10.4 °C 4.1 °C 1015.1 hPa SW 3.2 km/h 11.3 km/h 65 % 0.0 mm
12:33 10.2 °C 3.7 °C 1015.1 hPa SW 3.2 km/h 11.3 km/h 64 % 0.0 mm
12:42 9.7 °C 3.7 °C 1015.1 hPa ESE 6.4 km/h 8.0 km/h 66 % 0.0 mm
12:52 10.4 °C 4.1 °C 1015.1 hPa SW 1.6 km/h 9.7 km/h 65 % 0.0 mm
13:02 10.1 °C 4.0 °C 1015.1 hPa WSW 4.8 km/h 9.7 km/h 66 % 0.0 mm
13:07 9.8 °C 3.3 °C 1015.1 hPa WSW 3.2 km/h 9.7 km/h 64 % 0.0 mm
13:12 9.7 °C 3.0 °C 1015.1 hPa SW 6.4 km/h 12.9 km/h 63 % 0.0 mm
13:17 10.2 °C 3.5 °C 1015.1 hPa SSW 4.8 km/h 12.9 km/h 63 % 0.0 mm
13:22 10.6 °C 4.3 °C 1015.1 hPa SW 4.8 km/h 12.9 km/h 65 % 0.0 mm
13:27 10.1 °C 4.0 °C 1015.1 hPa Calm   12.9 km/h 66 % 0.0 mm
13:37 10.4 °C 5.4 °C 1014.8 hPa ENE 8.0 km/h 12.9 km/h 71 % 0.0 mm
13:42 10.5 °C 4.8 °C 1014.8 hPa NNE 17.7 km/h 17.7 km/h 68 % 0.0 mm
13:52 11.8 °C 4.8 °C 1014.8 hPa Calm   17.7 km/h 62 % 0.0 mm
13:57 12.1 °C 5.7 °C 1014.8 hPa Calm   17.7 km/h 65 % 0.0 mm
14:02 11.7 °C 4.4 °C 1014.8 hPa South 6.4 km/h 11.3 km/h 61 % 0.0 mm
14:07 10.3 °C 4.0 °C 1014.8 hPa SW 6.4 km/h 17.7 km/h 65 % 0.0 mm
14:12 9.1 °C 4.3 °C 1014.8 hPa ENE 3.2 km/h 17.7 km/h 72 % 0.0 mm
14:17 8.4 °C 4.2 °C 1014.8 hPa ENE 6.4 km/h 17.7 km/h 75 % 0.0 mm
14:32 10.5 °C 5.1 °C 1014.8 hPa Calm   9.7 km/h 69 % 0.0 mm
14:37 11.2 °C 4.0 °C 1014.8 hPa Calm   9.7 km/h 61 % 0.0 mm
14:42 11.0 °C 3.3 °C 1014.4 hPa WSW 1.6 km/h 11.3 km/h 59 % 0.0 mm
14:47 10.9 °C 3.9 °C 1014.4 hPa SW 8.0 km/h 11.3 km/h 62 % 0.0 mm
14:52 10.7 °C 2.8 °C 1014.4 hPa SW 1.6 km/h 12.9 km/h 58 % 0.0 mm
14:57 10.4 °C 3.2 °C 1014.4 hPa WSW 1.6 km/h 12.9 km/h 61 % 0.0 mm
15:02 10.4 °C 3.9 °C 1014.4 hPa SW 3.2 km/h 12.9 km/h 64 % 0.0 mm
15:07 10.8 °C 5.3 °C 1014.4 hPa SW 4.8 km/h 11.3 km/h 69 % 0.0 mm
15:12 11.4 °C 5.1 °C 1014.1 hPa WSW 6.4 km/h 11.3 km/h 65 % 0.0 mm
15:17 11.5 °C 5.6 °C 1014.1 hPa SW 1.6 km/h 11.3 km/h 67 % 0.0 mm
15:22 11.5 °C 4.7 °C 1013.8 hPa SW 3.2 km/h 11.3 km/h 63 % 0.0 mm
15:27 11.7 °C 4.2 °C 1013.8 hPa WSW 3.2 km/h 11.3 km/h 60 % 0.0 mm
15:32 11.9 °C 5.1 °C 1013.8 hPa SW 6.4 km/h 12.9 km/h 63 % 0.0 mm
15:37 12.1 °C 4.6 °C 1013.8 hPa WSW 4.8 km/h 12.9 km/h 60 % 0.0 mm
15:42 12.2 °C 4.4 °C 1013.8 hPa SW 4.8 km/h 12.9 km/h 59 % 0.0 mm
15:52 11.3 °C 3.8 °C 1013.8 hPa SSE 1.6 km/h 9.7 km/h 60 % 0.0 mm
16:02 12.0 °C 5.6 °C 1013.8 hPa WSW 1.6 km/h 9.7 km/h 65 % 0.0 mm
16:07 12.4 °C 4.6 °C 1013.4 hPa SW 8.0 km/h 9.7 km/h 59 % 0.0 mm
16:12 12.9 °C 3.5 °C 1013.8 hPa SSW 3.2 km/h 9.7 km/h 53 % 0.0 mm
16:17 12.4 °C 3.9 °C 1013.8 hPa SW 3.2 km/h 11.3 km/h 56 % 0.0 mm
16:22 11.7 °C 3.7 °C 1013.8 hPa East 4.8 km/h 11.3 km/h 58 % 0.0 mm
16:32 9.7 °C 3.7 °C 1014.1 hPa SW 3.2 km/h 12.9 km/h 66 % 0.0 mm
16:37 8.8 °C 3.8 °C 1014.1 hPa WSW 8.0 km/h 12.9 km/h 71 % 0.0 mm
16:42 8.2 °C 4.0 °C 1014.1 hPa Calm   8.0 km/h 75 % 0.5 mm
16:47 7.8 °C 4.2 °C 1013.8 hPa Calm   8.0 km/h 78 % 0.5 mm
16:52 7.8 °C 4.9 °C 1013.8 hPa Calm   8.0 km/h 82 % 0.5 mm
16:57 7.9 °C 4.8 °C 1013.8 hPa Calm   1.6 km/h 81 % 0.5 mm
17:02 8.0 °C 3.8 °C 1013.8 hPa Calm   1.6 km/h 75 % 0.5 mm
17:07 8.5 °C 4.9 °C 1013.8 hPa Calm   3.2 km/h 78 % 0.5 mm
17:12 9.1 °C 4.3 °C 1013.4 hPa Calm   3.2 km/h 72 % 0.5 mm
17:17 9.9 °C 4.7 °C 1013.4 hPa Calm   3.2 km/h 70 % 0.5 mm
17:22 10.7 °C 5.2 °C 1013.4 hPa SW 3.2 km/h 8.0 km/h 69 % 0.5 mm
17:32 11.4 °C 4.6 °C 1013.4 hPa SW 1.6 km/h 8.0 km/h 63 % 0.5 mm
17:37 11.4 °C 5.1 °C 1013.4 hPa SW 1.6 km/h 8.0 km/h 65 % 0.5 mm
17:42 11.7 °C 5.1 °C 1013.4 hPa SW 3.2 km/h 14.5 km/h 64 % 0.3 mm
17:47 11.7 °C 4.9 °C 1013.4 hPa SW 3.2 km/h 14.5 km/h 63 % 0.0 mm
17:52 11.5 °C 4.7 °C 1013.4 hPa WSW 3.2 km/h 9.7 km/h 63 % 0.0 mm
17:57 11.6 °C 5.5 °C 1013.4 hPa West 3.2 km/h 9.7 km/h 66 % 0.0 mm
18:02 11.6 °C 5.2 °C 1013.1 hPa WSW 4.8 km/h 9.7 km/h 65 % 0.0 mm
18:07 11.3 °C 4.1 °C 1013.1 hPa SW 3.2 km/h 11.3 km/h 61 % 0.0 mm
18:12 10.7 °C 3.9 °C 1013.1 hPa Calm   11.3 km/h 63 % 0.0 mm
18:19 10.4 °C 3.9 °C 1013.4 hPa SW 1.6 km/h 8.0 km/h 64 % 0.0 mm
18:27 9.8 °C 3.5 °C 1013.4 hPa SSE 1.6 km/h 8.0 km/h 65 % 0.0 mm
18:32 9.4 °C 3.2 °C 1013.4 hPa SSW 3.2 km/h 8.0 km/h 65 % 0.0 mm
18:42 9.4 °C 3.4 °C 1013.4 hPa Calm   8.0 km/h 66 % 0.0 mm
18:47 9.7 °C 3.4 °C 1013.4 hPa SW 1.6 km/h 4.8 km/h 65 % 0.0 mm
18:52 9.8 °C 2.9 °C 1013.4 hPa Calm   4.8 km/h 62 % 0.0 mm
18:57 9.9 °C 3.0 °C 1013.4 hPa Calm   6.4 km/h 62 % 0.0 mm
19:02 10.0 °C 3.1 °C 1013.4 hPa SW 1.6 km/h 6.4 km/h 62 % 0.0 mm
19:07 9.9 °C 3.4 °C 1013.4 hPa Calm   4.8 km/h 64 % 0.0 mm
19:12 9.6 °C 4.0 °C 1013.4 hPa SW 3.2 km/h 6.4 km/h 68 % 0.0 mm
19:17 9.1 °C 3.7 °C 1013.4 hPa West 3.2 km/h 6.4 km/h 69 % 0.0 mm
19:22 8.6 °C 3.6 °C 1013.4 hPa Calm   6.4 km/h 71 % 0.0 mm
19:27 8.4 °C 3.8 °C 1013.8 hPa SW 1.6 km/h 6.4 km/h 73 % 0.0 mm
19:32 8.4 °C 3.2 °C 1013.8 hPa WSW 1.6 km/h 4.8 km/h 70 % 0.0 mm
19:37 8.4 °C 3.6 °C 1013.8 hPa Calm   4.8 km/h 72 % 0.0 mm
19:42 8.2 °C 4.0 °C 1013.4 hPa Calm   4.8 km/h 75 % 0.0 mm
19:47 8.0 °C 4.0 °C 1013.8 hPa Calm   4.8 km/h 76 % 0.0 mm
19:52 7.9 °C 4.3 °C 1013.4 hPa Calm   3.2 km/h 78 % 0.0 mm
19:57 7.7 °C 4.1 °C 1013.8 hPa Calm   3.2 km/h 78 % 0.0 mm
20:02 7.6 °C 4.0 °C 1013.8 hPa Calm   1.6 km/h 78 % 0.0 mm
20:07 7.7 °C 4.1 °C 1013.8 hPa Calm   1.6 km/h 78 % 0.0 mm
20:12 7.6 °C 4.0 °C 1013.8 hPa Calm   1.6 km/h 78 % 0.0 mm
20:17 7.4 °C 3.6 °C 1013.8 hPa Calm   1.6 km/h 77 % 0.0 mm
20:22 7.2 °C 3.6 °C 1013.8 hPa Calm   1.6 km/h 78 % 0.0 mm
20:32 7.1 °C 3.5 °C 1014.1 hPa Calm   4.8 km/h 78 % 0.0 mm
20:37 6.9 °C 3.5 °C 1014.1 hPa Calm   4.8 km/h 79 % 0.0 mm
20:42 6.8 °C 3.6 °C 1014.1 hPa Calm   3.2 km/h 80 % 0.0 mm
20:47 6.6 °C 3.4 °C 1014.1 hPa Calm   1.6 km/h 80 % 0.0 mm
20:52 6.6 °C 3.4 °C 1014.4 hPa Calm     80 % 0.0 mm
20:57 6.4 °C 3.4 °C 1014.4 hPa Calm     81 % 0.0 mm
21:02 6.3 °C 3.3 °C 1014.4 hPa Calm     81 % 0.0 mm
21:07 6.2 °C 3.4 °C 1014.4 hPa Calm     82 % 0.0 mm
21:17 5.8 °C 3.1 °C 1014.4 hPa Calm   1.6 km/h 83 % 0.0 mm
21:27 5.4 °C 2.9 °C 1014.4 hPa Calm   1.6 km/h 84 % 0.0 mm
21:37 4.9 °C 2.8 °C 1014.4 hPa Calm     86 % 0.0 mm
21:42 4.7 °C 2.7 °C 1014.4 hPa Calm     87 % 0.0 mm
21:47 4.5 °C 2.7 °C 1014.8 hPa Calm     88 % 0.0 mm
22:02 4.2 °C 2.5 °C 1014.8 hPa Calm     89 % 0.0 mm
22:07 4.1 °C 2.5 °C 1014.4 hPa Calm   1.6 km/h 89 % 0.0 mm
22:12 4.1 °C 2.5 °C 1014.4 hPa Calm   1.6 km/h 89 % 0.0 mm
22:17 4.1 °C 2.5 °C 1014.8 hPa Calm   1.6 km/h 89 % 0.0 mm
22:22 3.9 °C 2.1 °C 1014.8 hPa Calm     88 % 0.0 mm
22:27 3.7 °C 1.9 °C 1014.8 hPa Calm     88 % 0.0 mm
22:32 3.5 °C 2.0 °C 1014.8 hPa Calm     90 % 0.0 mm
22:37 3.4 °C 1.9 °C 1014.8 hPa Calm     90 % 0.0 mm
22:42 3.2 °C 1.7 °C 1014.8 hPa Calm     90 % 0.0 mm
22:52 3.2 °C 2.0 °C 1014.8 hPa Calm     92 % 0.0 mm
22:57 3.2 °C 2.0 °C 1014.8 hPa Calm   1.6 km/h 92 % 0.0 mm
23:02 3.2 °C 2.0 °C 1014.8 hPa Calm   1.6 km/h 92 % 0.0 mm
23:07 3.1 °C 1.9 °C 1014.8 hPa Calm   1.6 km/h 92 % 0.0 mm
23:12 3.1 °C 1.9 °C 1014.8 hPa Calm     92 % 0.0 mm
23:17 3.1 °C 1.9 °C 1014.8 hPa Calm   1.6 km/h 92 % 0.0 mm
23:22 2.8 °C 1.5 °C 1014.8 hPa Calm   1.6 km/h 91 % 0.0 mm
23:27 2.5 °C 1.2 °C 1014.8 hPa Calm   1.6 km/h 91 % 0.0 mm
23:32 2.3 °C 1.0 °C 1015.1 hPa Calm     91 % 0.0 mm
23:37 2.1 °C 0.9 °C 1015.1 hPa Calm     92 % 0.0 mm
23:42 2.0 °C 0.8 °C 1015.1 hPa Calm     92 % 0.0 mm
23:47 1.9 °C 0.7 °C 1015.1 hPa Calm     92 % 0.0 mm
23:52 1.8 °C 0.8 °C 1015.1 hPa Calm     93 % 0.0 mm
23:57 1.7 °C 0.7 °C 1015.1 hPa Calm     93 % 0.0 mm
Meteo18
Compliments of Weather Underground - 4 mb

Script developed by  Jim McMurry - jmcmurry@mwt.net Adapted for the template by  Wim van der Kuil - Leuven-Template.eu

You find our weather info also at:

European Weather Network

Weather Underground

Equipment we use:

Weather-station
Davis Vue

Weather-program
Meteohub

Weather-server
Raspberry PI 2 B+

Provider
1 and 1

Davis Vue

Meteohub

Raspberry PI 2 B+

1 and 1